sensor_id;sensor_type;location;lat;lon;timestamp;P1;durP1;ratioP1;P2;durP2;ratioP2
22737;SDS011;11536;50.860;4.286;2023-10-08T00:01:08;7.75;;;1.48;;
22737;SDS011;11536;50.860;4.286;2023-10-08T00:03:38;6.40;;;1.48;;
22737;SDS011;11536;50.860;4.286;2023-10-08T00:06:05;5.90;;;1.25;;
22737;SDS011;11536;50.860;4.286;2023-10-08T00:08:38;5.07;;;1.42;;
22737;SDS011;11536;50.860;4.286;2023-10-08T00:11:03;4.40;;;1.30;;
22737;SDS011;11536;50.860;4.286;2023-10-08T00:13:35;7.07;;;1.75;;
22737;SDS011;11536;50.860;4.286;2023-10-08T00:16:07;5.28;;;1.70;;
22737;SDS011;11536;50.860;4.286;2023-10-08T00:18:40;4.78;;;1.65;;
22737;SDS011;11536;50.860;4.286;2023-10-08T00:21:14;5.22;;;1.60;;
22737;SDS011;11536;50.860;4.286;2023-10-08T00:23:40;4.70;;;1.65;;
22737;SDS011;11536;50.860;4.286;2023-10-08T00:26:10;4.35;;;1.35;;
22737;SDS011;11536;50.860;4.286;2023-10-08T00:28:37;7.97;;;1.92;;
22737;SDS011;11536;50.860;4.286;2023-10-08T00:31:05;9.25;;;1.70;;
22737;SDS011;11536;50.860;4.286;2023-10-08T00:33:35;4.93;;;1.50;;
22737;SDS011;11536;50.860;4.286;2023-10-08T00:36:01;5.40;;;1.40;;
22737;SDS011;11536;50.860;4.286;2023-10-08T00:38:42;5.18;;;1.38;;
22737;SDS011;11536;50.860;4.286;2023-10-08T00:41:12;8.02;;;1.33;;
22737;SDS011;11536;50.860;4.286;2023-10-08T00:43:39;7.03;;;1.50;;
22737;SDS011;11536;50.860;4.286;2023-10-08T00:46:06;3.95;;;1.25;;
22737;SDS011;11536;50.860;4.286;2023-10-08T00:48:53;10.45;;;1.50;;
22737;SDS011;11536;50.860;4.286;2023-10-08T00:51:24;4.22;;;1.55;;
22737;SDS011;11536;50.860;4.286;2023-10-08T00:53:56;6.95;;;1.60;;
22737;SDS011;11536;50.860;4.286;2023-10-08T00:56:32;6.82;;;1.40;;
22737;SDS011;11536;50.860;4.286;2023-10-08T00:59:22;4.43;;;1.33;;
22737;SDS011;11536;50.860;4.286;2023-10-08T01:01:51;3.85;;;1.27;;
22737;SDS011;11536;50.860;4.286;2023-10-08T01:04:23;6.03;;;1.70;;
22737;SDS011;11536;50.860;4.286;2023-10-08T01:06:53;7.65;;;1.80;;
22737;SDS011;11536;50.860;4.286;2023-10-08T01:09:37;5.18;;;1.63;;
22737;SDS011;11536;50.860;4.286;2023-10-08T01:14:57;4.60;;;1.40;;
22737;SDS011;11536;50.860;4.286;2023-10-08T01:17:38;7.10;;;2.10;;
22737;SDS011;11536;50.860;4.286;2023-10-08T01:20:17;6.75;;;1.50;;
22737;SDS011;11536;50.860;4.286;2023-10-08T01:23:14;4.88;;;1.42;;
22737;SDS011;11536;50.860;4.286;2023-10-08T01:25:42;4.50;;;1.30;;
22737;SDS011;11536;50.860;4.286;2023-10-08T01:28:08;7.05;;;1.67;;
22737;SDS011;11536;50.860;4.286;2023-10-08T01:30:54;5.13;;;1.63;;
22737;SDS011;11536;50.860;4.286;2023-10-08T01:33:22;5.65;;;1.80;;
22737;SDS011;11536;50.860;4.286;2023-10-08T01:35:48;5.35;;;1.40;;
22737;SDS011;11536;50.860;4.286;2023-10-08T01:38:14;8.88;;;1.92;;
22737;SDS011;11536;50.860;4.286;2023-10-08T01:40:41;6.85;;;1.60;;
22737;SDS011;11536;50.860;4.286;2023-10-08T01:43:07;6.50;;;1.67;;
22737;SDS011;11536;50.860;4.286;2023-10-08T01:45:37;3.65;;;1.27;;
22737;SDS011;11536;50.860;4.286;2023-10-08T01:48:07;5.47;;;2.08;;
22737;SDS011;11536;50.860;4.286;2023-10-08T01:50:37;6.28;;;1.73;;
22737;SDS011;11536;50.860;4.286;2023-10-08T01:53:03;5.65;;;1.52;;
22737;SDS011;11536;50.860;4.286;2023-10-08T01:55:34;7.82;;;1.70;;
22737;SDS011;11536;50.860;4.286;2023-10-08T01:58:14;6.35;;;1.70;;
22737;SDS011;11536;50.860;4.286;2023-10-08T02:00:47;7.05;;;1.67;;
22737;SDS011;11536;50.860;4.286;2023-10-08T02:03:14;6.03;;;2.07;;
22737;SDS011;11536;50.860;4.286;2023-10-08T02:05:43;6.80;;;2.10;;
22737;SDS011;11536;50.860;4.286;2023-10-08T02:08:12;5.15;;;1.52;;
22737;SDS011;11536;50.860;4.286;2023-10-08T02:10:39;4.85;;;1.60;;
22737;SDS011;11536;50.860;4.286;2023-10-08T02:13:06;6.93;;;1.70;;
22737;SDS011;11536;50.860;4.286;2023-10-08T02:15:33;3.75;;;1.58;;
22737;SDS011;11536;50.860;4.286;2023-10-08T02:18:01;6.85;;;1.65;;
22737;SDS011;11536;50.860;4.286;2023-10-08T02:20:28;4.85;;;1.65;;
22737;SDS011;11536;50.860;4.286;2023-10-08T02:22:54;4.95;;;2.00;;
22737;SDS011;11536;50.860;4.286;2023-10-08T02:25:20;5.38;;;1.75;;
22737;SDS011;11536;50.860;4.286;2023-10-08T02:27:45;5.20;;;1.58;;
22737;SDS011;11536;50.860;4.286;2023-10-08T02:30:13;5.03;;;1.40;;
22737;SDS011;11536;50.860;4.286;2023-10-08T02:32:38;6.57;;;2.03;;
22737;SDS011;11536;50.860;4.286;2023-10-08T02:35:08;7.35;;;2.17;;
22737;SDS011;11536;50.860;4.286;2023-10-08T02:37:36;7.40;;;2.00;;
22737;SDS011;11536;50.860;4.286;2023-10-08T02:40:05;5.60;;;1.95;;
22737;SDS011;11536;50.860;4.286;2023-10-08T02:42:41;7.25;;;1.63;;
22737;SDS011;11536;50.860;4.286;2023-10-08T02:45:07;5.60;;;1.50;;
22737;SDS011;11536;50.860;4.286;2023-10-08T02:47:39;6.78;;;1.80;;
22737;SDS011;11536;50.860;4.286;2023-10-08T02:50:06;6.22;;;1.80;;
22737;SDS011;11536;50.860;4.286;2023-10-08T02:52:33;8.13;;;1.88;;
22737;SDS011;11536;50.860;4.286;2023-10-08T02:54:59;6.05;;;1.70;;
22737;SDS011;11536;50.860;4.286;2023-10-08T02:57:25;6.05;;;1.45;;
22737;SDS011;11536;50.860;4.286;2023-10-08T02:59:54;5.15;;;1.67;;
22737;SDS011;11536;50.860;4.286;2023-10-08T03:02:20;5.63;;;1.52;;
22737;SDS011;11536;50.860;4.286;2023-10-08T03:04:47;4.85;;;1.75;;
22737;SDS011;11536;50.860;4.286;2023-10-08T03:07:16;6.13;;;1.77;;
22737;SDS011;11536;50.860;4.286;2023-10-08T03:09:57;6.35;;;1.90;;
22737;SDS011;11536;50.860;4.286;2023-10-08T03:12:43;5.35;;;1.75;;
22737;SDS011;11536;50.860;4.286;2023-10-08T03:15:11;7.75;;;1.75;;
22737;SDS011;11536;50.860;4.286;2023-10-08T03:17:38;4.00;;;1.48;;
22737;SDS011;11536;50.860;4.286;2023-10-08T03:20:17;6.05;;;1.60;;
22737;SDS011;11536;50.860;4.286;2023-10-08T03:23:01;5.38;;;1.58;;
22737;SDS011;11536;50.860;4.286;2023-10-08T03:25:31;5.72;;;1.60;;
22737;SDS011;11536;50.860;4.286;2023-10-08T03:27:58;7.10;;;1.98;;
22737;SDS011;11536;50.860;4.286;2023-10-08T03:30:24;5.40;;;1.73;;
22737;SDS011;11536;50.860;4.286;2023-10-08T03:32:51;5.93;;;1.63;;
22737;SDS011;11536;50.860;4.286;2023-10-08T03:35:20;5.32;;;1.77;;
22737;SDS011;11536;50.860;4.286;2023-10-08T03:37:53;6.72;;;1.90;;
22737;SDS011;11536;50.860;4.286;2023-10-08T03:40:19;5.97;;;2.05;;
22737;SDS011;11536;50.860;4.286;2023-10-08T03:43:17;5.47;;;1.67;;
22737;SDS011;11536;50.860;4.286;2023-10-08T03:45:58;5.35;;;1.70;;
22737;SDS011;11536;50.860;4.286;2023-10-08T03:48:25;7.55;;;2.20;;
22737;SDS011;11536;50.860;4.286;2023-10-08T03:50:54;7.30;;;2.05;;
22737;SDS011;11536;50.860;4.286;2023-10-08T03:53:31;5.82;;;1.75;;
22737;SDS011;11536;50.860;4.286;2023-10-08T03:56:02;7.63;;;1.98;;
22737;SDS011;11536;50.860;4.286;2023-10-08T03:58:31;5.90;;;1.90;;
22737;SDS011;11536;50.860;4.286;2023-10-08T04:01:05;5.13;;;1.50;;
22737;SDS011;11536;50.860;4.286;2023-10-08T04:03:35;6.97;;;2.00;;
22737;SDS011;11536;50.860;4.286;2023-10-08T04:06:17;6.65;;;2.30;;
22737;SDS011;11536;50.860;4.286;2023-10-08T04:08:47;4.35;;;1.50;;
22737;SDS011;11536;50.860;4.286;2023-10-08T04:11:32;5.55;;;1.60;;
22737;SDS011;11536;50.860;4.286;2023-10-08T04:14:01;6.60;;;1.90;;
22737;SDS011;11536;50.860;4.286;2023-10-08T04:16:27;7.65;;;2.10;;
22737;SDS011;11536;50.860;4.286;2023-10-08T04:18:54;5.70;;;1.60;;
22737;SDS011;11536;50.860;4.286;2023-10-08T04:21:21;6.40;;;1.80;;
22737;SDS011;11536;50.860;4.286;2023-10-08T04:23:52;7.25;;;1.83;;
22737;SDS011;11536;50.860;4.286;2023-10-08T04:26:18;6.05;;;1.95;;
22737;SDS011;11536;50.860;4.286;2023-10-08T04:28:52;7.18;;;1.90;;
22737;SDS011;11536;50.860;4.286;2023-10-08T04:31:30;5.85;;;1.73;;
22737;SDS011;11536;50.860;4.286;2023-10-08T04:34:03;5.00;;;1.58;;
22737;SDS011;11536;50.860;4.286;2023-10-08T04:36:35;5.38;;;1.73;;
22737;SDS011;11536;50.860;4.286;2023-10-08T04:39:05;7.45;;;2.28;;
22737;SDS011;11536;50.860;4.286;2023-10-08T04:41:39;5.72;;;1.98;;
22737;SDS011;11536;50.860;4.286;2023-10-08T04:44:08;6.50;;;1.88;;
22737;SDS011;11536;50.860;4.286;2023-10-08T04:46:43;7.63;;;2.00;;
22737;SDS011;11536;50.860;4.286;2023-10-08T04:49:16;4.93;;;1.70;;
22737;SDS011;11536;50.860;4.286;2023-10-08T04:51:57;7.90;;;2.17;;
22737;SDS011;11536;50.860;4.286;2023-10-08T04:54:27;6.38;;;1.83;;
22737;SDS011;11536;50.860;4.286;2023-10-08T04:57:00;5.05;;;1.40;;
22737;SDS011;11536;50.860;4.286;2023-10-08T04:59:29;7.72;;;2.58;;
22737;SDS011;11536;50.860;4.286;2023-10-08T05:02:02;5.07;;;1.80;;
22737;SDS011;11536;50.860;4.286;2023-10-08T05:04:47;7.72;;;2.05;;
22737;SDS011;11536;50.860;4.286;2023-10-08T05:07:16;7.15;;;2.03;;
22737;SDS011;11536;50.860;4.286;2023-10-08T05:09:43;7.28;;;2.17;;
22737;SDS011;11536;50.860;4.286;2023-10-08T05:12:18;5.63;;;2.03;;
22737;SDS011;11536;50.860;4.286;2023-10-08T05:15:03;7.07;;;2.42;;
22737;SDS011;11536;50.860;4.286;2023-10-08T05:17:39;6.53;;;2.20;;
22737;SDS011;11536;50.860;4.286;2023-10-08T05:20:31;5.75;;;1.83;;
22737;SDS011;11536;50.860;4.286;2023-10-08T05:23:24;7.57;;;2.10;;
22737;SDS011;11536;50.860;4.286;2023-10-08T05:25:53;8.07;;;2.40;;
22737;SDS011;11536;50.860;4.286;2023-10-08T05:28:23;6.47;;;1.73;;
22737;SDS011;11536;50.860;4.286;2023-10-08T05:30:50;7.18;;;2.33;;
22737;SDS011;11536;50.860;4.286;2023-10-08T05:33:42;5.85;;;1.98;;
22737;SDS011;11536;50.860;4.286;2023-10-08T05:36:26;6.03;;;1.67;;
22737;SDS011;11536;50.860;4.286;2023-10-08T05:39:15;5.68;;;2.20;;
22737;SDS011;11536;50.860;4.286;2023-10-08T05:41:52;7.32;;;2.33;;
22737;SDS011;11536;50.860;4.286;2023-10-08T05:44:37;6.28;;;2.05;;
22737;SDS011;11536;50.860;4.286;2023-10-08T05:47:11;7.22;;;2.03;;
22737;SDS011;11536;50.860;4.286;2023-10-08T05:50:01;11.52;;;2.47;;
22737;SDS011;11536;50.860;4.286;2023-10-08T05:52:43;7.45;;;2.22;;
22737;SDS011;11536;50.860;4.286;2023-10-08T05:55:36;7.55;;;2.33;;
22737;SDS011;11536;50.860;4.286;2023-10-08T05:58:12;7.18;;;2.50;;
22737;SDS011;11536;50.860;4.286;2023-10-08T06:00:44;7.28;;;2.40;;
22737;SDS011;11536;50.860;4.286;2023-10-08T06:03:26;5.70;;;2.30;;
22737;SDS011;11536;50.860;4.286;2023-10-08T06:06:01;9.13;;;2.55;;
22737;SDS011;11536;50.860;4.286;2023-10-08T06:08:40;6.90;;;2.20;;
22737;SDS011;11536;50.860;4.286;2023-10-08T06:11:25;6.93;;;2.67;;
22737;SDS011;11536;50.860;4.286;2023-10-08T06:14:09;9.60;;;2.40;;
22737;SDS011;11536;50.860;4.286;2023-10-08T06:16:41;6.43;;;2.25;;
22737;SDS011;11536;50.860;4.286;2023-10-08T06:19:12;7.20;;;2.25;;
22737;SDS011;11536;50.860;4.286;2023-10-08T06:21:40;8.93;;;2.40;;
22737;SDS011;11536;50.860;4.286;2023-10-08T06:24:07;8.10;;;2.28;;
22737;SDS011;11536;50.860;4.286;2023-10-08T06:26:40;9.20;;;2.40;;
22737;SDS011;11536;50.860;4.286;2023-10-08T06:29:10;6.90;;;2.08;;
22737;SDS011;11536;50.860;4.286;2023-10-08T06:31:55;9.02;;;2.60;;
22737;SDS011;11536;50.860;4.286;2023-10-08T06:34:22;8.15;;;2.42;;
22737;SDS011;11536;50.860;4.286;2023-10-08T06:36:52;5.93;;;2.10;;
22737;SDS011;11536;50.860;4.286;2023-10-08T06:39:22;7.80;;;2.50;;
22737;SDS011;11536;50.860;4.286;2023-10-08T06:41:58;5.57;;;2.17;;
22737;SDS011;11536;50.860;4.286;2023-10-08T06:44:25;8.80;;;2.28;;
22737;SDS011;11536;50.860;4.286;2023-10-08T06:46:52;8.25;;;2.53;;
22737;SDS011;11536;50.860;4.286;2023-10-08T06:49:19;7.05;;;2.22;;
22737;SDS011;11536;50.860;4.286;2023-10-08T06:51:48;6.07;;;2.03;;
22737;SDS011;11536;50.860;4.286;2023-10-08T06:54:15;5.60;;;2.15;;
22737;SDS011;11536;50.860;4.286;2023-10-08T06:56:42;7.97;;;2.50;;
22737;SDS011;11536;50.860;4.286;2023-10-08T06:59:17;5.45;;;2.00;;
22737;SDS011;11536;50.860;4.286;2023-10-08T07:01:44;9.70;;;2.83;;
22737;SDS011;11536;50.860;4.286;2023-10-08T07:04:16;9.65;;;2.78;;
22737;SDS011;11536;50.860;4.286;2023-10-08T07:06:44;7.20;;;2.45;;
22737;SDS011;11536;50.860;4.286;2023-10-08T07:09:11;7.28;;;2.40;;
22737;SDS011;11536;50.860;4.286;2023-10-08T07:11:53;8.68;;;2.85;;
22737;SDS011;11536;50.860;4.286;2023-10-08T07:14:23;5.93;;;2.55;;
22737;SDS011;11536;50.860;4.286;2023-10-08T07:16:56;6.72;;;2.20;;
22737;SDS011;11536;50.860;4.286;2023-10-08T07:19:26;5.97;;;1.98;;
22737;SDS011;11536;50.860;4.286;2023-10-08T07:22:02;8.25;;;2.10;;
22737;SDS011;11536;50.860;4.286;2023-10-08T07:24:33;6.93;;;2.85;;
22737;SDS011;11536;50.860;4.286;2023-10-08T07:27:01;7.28;;;2.50;;
22737;SDS011;11536;50.860;4.286;2023-10-08T07:29:33;5.78;;;2.10;;
22737;SDS011;11536;50.860;4.286;2023-10-08T07:32:00;7.55;;;2.47;;
22737;SDS011;11536;50.860;4.286;2023-10-08T07:34:35;8.27;;;2.47;;
22737;SDS011;11536;50.860;4.286;2023-10-08T07:37:01;6.53;;;2.65;;
22737;SDS011;11536;50.860;4.286;2023-10-08T07:39:27;7.13;;;2.05;;
22737;SDS011;11536;50.860;4.286;2023-10-08T07:42:05;6.47;;;2.20;;
22737;SDS011;11536;50.860;4.286;2023-10-08T07:44:31;7.40;;;2.30;;
22737;SDS011;11536;50.860;4.286;2023-10-08T07:46:57;7.18;;;2.63;;
22737;SDS011;11536;50.860;4.286;2023-10-08T07:49:23;8.27;;;2.40;;
22737;SDS011;11536;50.860;4.286;2023-10-08T07:51:55;9.52;;;2.38;;
22737;SDS011;11536;50.860;4.286;2023-10-08T07:54:23;6.97;;;2.38;;
22737;SDS011;11536;50.860;4.286;2023-10-08T07:56:52;6.70;;;2.22;;
22737;SDS011;11536;50.860;4.286;2023-10-08T07:59:45;7.85;;;2.28;;
22737;SDS011;11536;50.860;4.286;2023-10-08T08:02:21;6.65;;;2.40;;
22737;SDS011;11536;50.860;4.286;2023-10-08T08:04:52;6.88;;;2.72;;
22737;SDS011;11536;50.860;4.286;2023-10-08T08:07:20;7.88;;;2.63;;
22737;SDS011;11536;50.860;4.286;2023-10-08T08:09:47;6.97;;;2.55;;
22737;SDS011;11536;50.860;4.286;2023-10-08T08:12:17;7.15;;;2.67;;
22737;SDS011;11536;50.860;4.286;2023-10-08T08:14:44;8.48;;;2.70;;
22737;SDS011;11536;50.860;4.286;2023-10-08T08:17:10;10.43;;;2.75;;
22737;SDS011;11536;50.860;4.286;2023-10-08T08:19:39;8.70;;;2.50;;
22737;SDS011;11536;50.860;4.286;2023-10-08T08:22:05;8.65;;;3.08;;
22737;SDS011;11536;50.860;4.286;2023-10-08T08:24:31;6.22;;;2.13;;
22737;SDS011;11536;50.860;4.286;2023-10-08T08:27:01;6.47;;;2.67;;
22737;SDS011;11536;50.860;4.286;2023-10-08T08:29:33;6.65;;;2.38;;
22737;SDS011;11536;50.860;4.286;2023-10-08T08:32:09;8.45;;;2.35;;
22737;SDS011;11536;50.860;4.286;2023-10-08T08:34:40;9.25;;;2.85;;
22737;SDS011;11536;50.860;4.286;2023-10-08T08:37:09;9.82;;;2.92;;
22737;SDS011;11536;50.860;4.286;2023-10-08T08:39:36;6.35;;;2.50;;
22737;SDS011;11536;50.860;4.286;2023-10-08T08:42:03;6.55;;;2.45;;
22737;SDS011;11536;50.860;4.286;2023-10-08T08:44:33;7.47;;;2.47;;
22737;SDS011;11536;50.860;4.286;2023-10-08T08:47:14;9.18;;;2.75;;
22737;SDS011;11536;50.860;4.286;2023-10-08T08:49:43;7.10;;;2.70;;
22737;SDS011;11536;50.860;4.286;2023-10-08T08:52:13;7.22;;;2.85;;
22737;SDS011;11536;50.860;4.286;2023-10-08T08:54:40;7.05;;;2.63;;
22737;SDS011;11536;50.860;4.286;2023-10-08T08:57:07;8.57;;;2.78;;
22737;SDS011;11536;50.860;4.286;2023-10-08T08:59:39;8.40;;;3.10;;
22737;SDS011;11536;50.860;4.286;2023-10-08T09:02:13;8.07;;;2.70;;
22737;SDS011;11536;50.860;4.286;2023-10-08T09:04:40;8.40;;;3.03;;
22737;SDS011;11536;50.860;4.286;2023-10-08T09:07:07;10.82;;;3.15;;
22737;SDS011;11536;50.860;4.286;2023-10-08T09:09:33;9.93;;;2.78;;
22737;SDS011;11536;50.860;4.286;2023-10-08T09:12:03;7.75;;;2.40;;
22737;SDS011;11536;50.860;4.286;2023-10-08T09:14:30;5.75;;;2.03;;
22737;SDS011;11536;50.860;4.286;2023-10-08T09:16:59;9.38;;;2.80;;
22737;SDS011;11536;50.860;4.286;2023-10-08T09:19:29;10.45;;;3.22;;
22737;SDS011;11536;50.860;4.286;2023-10-08T09:22:01;9.40;;;2.80;;
22737;SDS011;11536;50.860;4.286;2023-10-08T09:24:38;9.38;;;3.30;;
22737;SDS011;11536;50.860;4.286;2023-10-08T09:27:05;8.93;;;3.63;;
22737;SDS011;11536;50.860;4.286;2023-10-08T09:29:32;11.23;;;2.85;;
22737;SDS011;11536;50.860;4.286;2023-10-08T09:32:04;9.30;;;2.67;;
22737;SDS011;11536;50.860;4.286;2023-10-08T09:34:32;10.00;;;3.17;;
22737;SDS011;11536;50.860;4.286;2023-10-08T09:36:59;13.02;;;2.92;;
22737;SDS011;11536;50.860;4.286;2023-10-08T09:39:25;7.60;;;3.03;;
22737;SDS011;11536;50.860;4.286;2023-10-08T09:41:57;9.98;;;2.90;;
22737;SDS011;11536;50.860;4.286;2023-10-08T09:44:23;9.25;;;3.20;;
22737;SDS011;11536;50.860;4.286;2023-10-08T09:46:53;8.48;;;2.90;;
22737;SDS011;11536;50.860;4.286;2023-10-08T09:49:36;8.55;;;2.92;;
22737;SDS011;11536;50.860;4.286;2023-10-08T09:52:15;6.78;;;2.80;;
22737;SDS011;11536;50.860;4.286;2023-10-08T09:54:56;9.68;;;3.55;;
22737;SDS011;11536;50.860;4.286;2023-10-08T09:57:27;10.37;;;3.00;;
22737;SDS011;11536;50.860;4.286;2023-10-08T09:59:53;6.95;;;2.80;;
22737;SDS011;11536;50.860;4.286;2023-10-08T10:02:19;15.38;;;3.72;;
22737;SDS011;11536;50.860;4.286;2023-10-08T10:04:49;10.60;;;4.03;;
22737;SDS011;11536;50.860;4.286;2023-10-08T10:07:17;10.20;;;3.83;;
22737;SDS011;11536;50.860;4.286;2023-10-08T10:09:46;8.07;;;3.40;;
22737;SDS011;11536;50.860;4.286;2023-10-08T10:12:18;12.38;;;3.53;;
22737;SDS011;11536;50.860;4.286;2023-10-08T10:14:50;14.10;;;4.18;;
22737;SDS011;11536;50.860;4.286;2023-10-08T10:17:20;12.50;;;3.88;;
22737;SDS011;11536;50.860;4.286;2023-10-08T10:19:57;10.45;;;3.97;;
22737;SDS011;11536;50.860;4.286;2023-10-08T10:22:29;10.40;;;3.47;;
22737;SDS011;11536;50.860;4.286;2023-10-08T10:27:39;14.52;;;4.55;;
22737;SDS011;11536;50.860;4.286;2023-10-08T10:30:29;13.55;;;4.18;;
22737;SDS011;11536;50.860;4.286;2023-10-08T10:32:55;9.75;;;3.75;;
22737;SDS011;11536;50.860;4.286;2023-10-08T10:35:25;12.15;;;3.50;;
22737;SDS011;11536;50.860;4.286;2023-10-08T10:37:52;9.85;;;3.90;;
22737;SDS011;11536;50.860;4.286;2023-10-08T10:40:20;9.98;;;3.38;;
22737;SDS011;11536;50.860;4.286;2023-10-08T10:43:04;13.43;;;4.05;;
22737;SDS011;11536;50.860;4.286;2023-10-08T10:45:41;10.82;;;3.38;;
22737;SDS011;11536;50.860;4.286;2023-10-08T10:48:09;9.55;;;3.85;;
22737;SDS011;11536;50.860;4.286;2023-10-08T10:50:43;12.10;;;3.60;;
22737;SDS011;11536;50.860;4.286;2023-10-08T10:53:29;10.40;;;3.55;;
22737;SDS011;11536;50.860;4.286;2023-10-08T10:56:13;11.07;;;4.03;;
22737;SDS011;11536;50.860;4.286;2023-10-08T10:58:58;12.27;;;3.50;;
22737;SDS011;11536;50.860;4.286;2023-10-08T11:01:27;13.95;;;3.92;;
22737;SDS011;11536;50.860;4.286;2023-10-08T11:03:55;10.75;;;3.95;;
22737;SDS011;11536;50.860;4.286;2023-10-08T11:06:24;8.75;;;3.75;;
22737;SDS011;11536;50.860;4.286;2023-10-08T11:08:53;11.25;;;3.72;;
22737;SDS011;11536;50.860;4.286;2023-10-08T11:11:27;10.82;;;4.75;;
22737;SDS011;11536;50.860;4.286;2023-10-08T11:13:57;12.32;;;4.15;;
22737;SDS011;11536;50.860;4.286;2023-10-08T11:16:28;10.38;;;3.47;;
22737;SDS011;11536;50.860;4.286;2023-10-08T11:18:58;13.13;;;3.80;;
22737;SDS011;11536;50.860;4.286;2023-10-08T11:21:26;9.20;;;3.55;;
22737;SDS011;11536;50.860;4.286;2023-10-08T11:23:56;11.65;;;4.45;;
22737;SDS011;11536;50.860;4.286;2023-10-08T11:26:24;10.23;;;3.33;;
22737;SDS011;11536;50.860;4.286;2023-10-08T11:29:05;12.80;;;4.20;;
22737;SDS011;11536;50.860;4.286;2023-10-08T11:31:39;10.30;;;3.17;;
22737;SDS011;11536;50.860;4.286;2023-10-08T11:34:05;12.27;;;3.60;;
22737;SDS011;11536;50.860;4.286;2023-10-08T11:36:34;12.23;;;3.72;;
22737;SDS011;11536;50.860;4.286;2023-10-08T11:39:13;9.30;;;3.67;;
22737;SDS011;11536;50.860;4.286;2023-10-08T11:41:56;14.73;;;3.40;;
22737;SDS011;11536;50.860;4.286;2023-10-08T11:44:32;10.80;;;3.60;;
22737;SDS011;11536;50.860;4.286;2023-10-08T11:47:02;12.80;;;3.88;;
22737;SDS011;11536;50.860;4.286;2023-10-08T11:49:39;11.07;;;3.53;;
22737;SDS011;11536;50.860;4.286;2023-10-08T11:52:12;8.32;;;2.80;;
22737;SDS011;11536;50.860;4.286;2023-10-08T11:54:40;9.07;;;3.00;;
22737;SDS011;11536;50.860;4.286;2023-10-08T11:57:07;10.30;;;3.25;;
22737;SDS011;11536;50.860;4.286;2023-10-08T11:59:34;8.23;;;2.92;;
22737;SDS011;11536;50.860;4.286;2023-10-08T12:02:04;11.07;;;3.33;;
22737;SDS011;11536;50.860;4.286;2023-10-08T12:04:33;9.48;;;3.78;;
22737;SDS011;11536;50.860;4.286;2023-10-08T12:06:59;9.90;;;3.67;;
22737;SDS011;11536;50.860;4.286;2023-10-08T12:09:28;12.55;;;3.40;;
22737;SDS011;11536;50.860;4.286;2023-10-08T12:11:54;7.82;;;2.97;;
22737;SDS011;11536;50.860;4.286;2023-10-08T12:14:22;8.32;;;3.00;;
22737;SDS011;11536;50.860;4.286;2023-10-08T12:16:55;10.27;;;3.53;;
22737;SDS011;11536;50.860;4.286;2023-10-08T12:19:21;11.63;;;4.03;;
22737;SDS011;11536;50.860;4.286;2023-10-08T12:21:47;9.07;;;2.95;;
22737;SDS011;11536;50.860;4.286;2023-10-08T12:24:13;9.60;;;2.97;;
22737;SDS011;11536;50.860;4.286;2023-10-08T12:26:42;12.90;;;3.88;;
22737;SDS011;11536;50.860;4.286;2023-10-08T12:29:11;8.05;;;3.33;;
22737;SDS011;11536;50.860;4.286;2023-10-08T12:31:43;9.40;;;3.10;;
22737;SDS011;11536;50.860;4.286;2023-10-08T12:34:13;10.85;;;2.92;;
22737;SDS011;11536;50.860;4.286;2023-10-08T12:36:41;9.95;;;2.67;;
22737;SDS011;11536;50.860;4.286;2023-10-08T12:39:07;10.40;;;4.00;;
22737;SDS011;11536;50.860;4.286;2023-10-08T12:41:53;10.00;;;3.38;;
22737;SDS011;11536;50.860;4.286;2023-10-08T12:44:18;13.10;;;3.05;;
22737;SDS011;11536;50.860;4.286;2023-10-08T12:46:44;9.18;;;2.70;;
22737;SDS011;11536;50.860;4.286;2023-10-08T12:49:13;8.30;;;3.00;;
22737;SDS011;11536;50.860;4.286;2023-10-08T12:51:55;9.63;;;3.15;;
22737;SDS011;11536;50.860;4.286;2023-10-08T12:54:27;9.23;;;3.30;;
22737;SDS011;11536;50.860;4.286;2023-10-08T12:56:58;9.98;;;3.67;;
22737;SDS011;11536;50.860;4.286;2023-10-08T12:59:24;8.38;;;3.08;;
22737;SDS011;11536;50.860;4.286;2023-10-08T13:01:49;10.10;;;3.10;;
22737;SDS011;11536;50.860;4.286;2023-10-08T13:04:21;9.77;;;3.05;;
22737;SDS011;11536;50.860;4.286;2023-10-08T13:06:53;8.95;;;2.90;;
22737;SDS011;11536;50.860;4.286;2023-10-08T13:09:22;9.43;;;3.30;;
22737;SDS011;11536;50.860;4.286;2023-10-08T13:11:48;9.48;;;2.78;;
22737;SDS011;11536;50.860;4.286;2023-10-08T13:14:15;7.55;;;2.90;;
22737;SDS011;11536;50.860;4.286;2023-10-08T13:16:41;9.73;;;2.50;;
22737;SDS011;11536;50.860;4.286;2023-10-08T13:19:09;9.02;;;3.33;;
22737;SDS011;11536;50.860;4.286;2023-10-08T13:21:35;8.63;;;3.35;;
22737;SDS011;11536;50.860;4.286;2023-10-08T13:24:02;9.68;;;3.47;;
22737;SDS011;11536;50.860;4.286;2023-10-08T13:26:30;7.28;;;2.50;;
22737;SDS011;11536;50.860;4.286;2023-10-08T13:28:58;10.13;;;3.47;;
22737;SDS011;11536;50.860;4.286;2023-10-08T13:31:25;9.90;;;3.35;;
22737;SDS011;11536;50.860;4.286;2023-10-08T13:33:51;7.10;;;2.83;;
22737;SDS011;11536;50.860;4.286;2023-10-08T13:36:21;8.20;;;2.88;;
22737;SDS011;11536;50.860;4.286;2023-10-08T13:38:47;7.45;;;2.88;;
22737;SDS011;11536;50.860;4.286;2023-10-08T13:41:13;9.27;;;3.22;;
22737;SDS011;11536;50.860;4.286;2023-10-08T13:43:45;11.52;;;3.30;;
22737;SDS011;11536;50.860;4.286;2023-10-08T13:46:17;10.50;;;3.05;;
22737;SDS011;11536;50.860;4.286;2023-10-08T13:48:47;14.45;;;3.08;;
22737;SDS011;11536;50.860;4.286;2023-10-08T13:51:14;11.82;;;3.45;;
22737;SDS011;11536;50.860;4.286;2023-10-08T13:53:56;10.63;;;3.05;;
22737;SDS011;11536;50.860;4.286;2023-10-08T13:56:28;8.63;;;3.08;;
22737;SDS011;11536;50.860;4.286;2023-10-08T13:58:57;10.32;;;3.95;;
22737;SDS011;11536;50.860;4.286;2023-10-08T14:01:40;11.43;;;3.15;;
22737;SDS011;11536;50.860;4.286;2023-10-08T14:04:10;11.80;;;3.63;;
22737;SDS011;11536;50.860;4.286;2023-10-08T14:06:38;10.27;;;3.28;;
22737;SDS011;11536;50.860;4.286;2023-10-08T14:09:13;9.07;;;3.17;;
22737;SDS011;11536;50.860;4.286;2023-10-08T14:11:45;10.07;;;3.50;;
22737;SDS011;11536;50.860;4.286;2023-10-08T14:14:12;8.50;;;3.13;;
22737;SDS011;11536;50.860;4.286;2023-10-08T14:16:41;10.40;;;3.38;;
22737;SDS011;11536;50.860;4.286;2023-10-08T14:19:07;9.90;;;2.95;;
22737;SDS011;11536;50.860;4.286;2023-10-08T14:21:40;8.80;;;2.83;;
22737;SDS011;11536;50.860;4.286;2023-10-08T14:24:20;10.15;;;3.00;;
22737;SDS011;11536;50.860;4.286;2023-10-08T14:26:45;8.02;;;2.92;;
22737;SDS011;11536;50.860;4.286;2023-10-08T14:29:19;10.18;;;3.60;;
22737;SDS011;11536;50.860;4.286;2023-10-08T14:31:45;8.38;;;3.05;;
22737;SDS011;11536;50.860;4.286;2023-10-08T14:34:14;9.00;;;3.88;;
22737;SDS011;11536;50.860;4.286;2023-10-08T14:36:40;12.38;;;3.70;;
22737;SDS011;11536;50.860;4.286;2023-10-08T14:39:25;10.18;;;3.28;;
22737;SDS011;11536;50.860;4.286;2023-10-08T14:42:09;8.30;;;2.47;;
22737;SDS011;11536;50.860;4.286;2023-10-08T14:44:53;8.93;;;2.83;;
22737;SDS011;11536;50.860;4.286;2023-10-08T14:47:19;9.10;;;2.80;;
22737;SDS011;11536;50.860;4.286;2023-10-08T14:49:45;8.02;;;2.63;;
22737;SDS011;11536;50.860;4.286;2023-10-08T14:52:11;7.85;;;2.67;;
22737;SDS011;11536;50.860;4.286;2023-10-08T14:54:37;6.85;;;2.55;;
22737;SDS011;11536;50.860;4.286;2023-10-08T14:57:03;8.85;;;2.60;;
22737;SDS011;11536;50.860;4.286;2023-10-08T14:59:30;9.15;;;2.88;;
22737;SDS011;11536;50.860;4.286;2023-10-08T15:01:58;8.38;;;3.00;;
22737;SDS011;11536;50.860;4.286;2023-10-08T15:04:24;9.32;;;2.92;;
22737;SDS011;11536;50.860;4.286;2023-10-08T15:06:51;9.85;;;2.83;;
22737;SDS011;11536;50.860;4.286;2023-10-08T15:09:17;7.78;;;2.65;;
22737;SDS011;11536;50.860;4.286;2023-10-08T15:11:52;9.43;;;2.60;;
22737;SDS011;11536;50.860;4.286;2023-10-08T15:14:21;7.07;;;2.60;;
22737;SDS011;11536;50.860;4.286;2023-10-08T15:19:20;11.00;;;2.85;;